sensor_id;sensor_type;location;lat;lon;timestamp;pressure;altitude;pressure_sealevel;temperature;humidity
39357;BME280;25077;50.302;18.996;2022-07-26T00:00:44;97450.84;;;21.13;38.04
39357;BME280;25077;50.302;18.996;2022-07-26T00:03:46;97450.53;;;21.11;38.32
39357;BME280;25077;50.302;18.996;2022-07-26T00:06:48;97446.56;;;21.12;38.28
39357;BME280;25077;50.302;18.996;2022-07-26T00:09:50;97449.31;;;21.12;37.99
39357;BME280;25077;50.302;18.996;2022-07-26T00:12:52;97450.53;;;21.11;37.94
39357;BME280;25077;50.302;18.996;2022-07-26T00:15:56;97458.00;;;21.10;38.52
39357;BME280;25077;50.302;18.996;2022-07-26T00:18:58;97463.84;;;21.12;37.93
39357;BME280;25077;50.302;18.996;2022-07-26T00:22:00;97458.81;;;21.11;38.35
39357;BME280;25077;50.302;18.996;2022-07-26T00:25:19;97458.47;;;21.09;38.06
39357;BME280;25077;50.302;18.996;2022-07-26T00:28:21;97465.97;;;21.08;37.92
39357;BME280;25077;50.302;18.996;2022-07-26T00:31:24;97469.16;;;21.07;38.52
39357;BME280;25077;50.302;18.996;2022-07-26T00:34:26;97460.16;;;21.06;38.44
39357;BME280;25077;50.302;18.996;2022-07-26T00:37:28;97457.41;;;21.06;38.36
39357;BME280;25077;50.302;18.996;2022-07-26T00:40:30;97452.31;;;21.04;38.51
39357;BME280;25077;50.302;18.996;2022-07-26T00:43:33;97449.25;;;21.02;38.65
39357;BME280;25077;50.302;18.996;2022-07-26T00:46:40;97444.66;;;20.99;39.10
39357;BME280;25077;50.302;18.996;2022-07-26T00:49:42;97430.38;;;20.92;39.04
39357;BME280;25077;50.302;18.996;2022-07-26T00:52:46;97427.41;;;20.86;39.44
39357;BME280;25077;50.302;18.996;2022-07-26T00:55:48;97417.44;;;20.79;39.74
39357;BME280;25077;50.302;18.996;2022-07-26T00:58:50;97416.66;;;20.79;39.29
39357;BME280;25077;50.302;18.996;2022-07-26T01:01:55;97414.81;;;20.76;39.44
39357;BME280;25077;50.302;18.996;2022-07-26T01:04:57;97412.97;;;20.73;39.65
39357;BME280;25077;50.302;18.996;2022-07-26T01:07:59;97411.09;;;20.70;40.02
39357;BME280;25077;50.302;18.996;2022-07-26T01:11:02;97406.16;;;20.65;40.25
39357;BME280;25077;50.302;18.996;2022-07-26T01:14:04;97403.66;;;20.58;40.24
39357;BME280;25077;50.302;18.996;2022-07-26T01:17:07;97395.66;;;20.50;40.26
39357;BME280;25077;50.302;18.996;2022-07-26T01:20:11;97392.59;;;20.48;40.37
39357;BME280;25077;50.302;18.996;2022-07-26T01:23:15;97384.00;;;20.46;40.65
39357;BME280;25077;50.302;18.996;2022-07-26T01:26:17;97383.03;;;20.40;40.69
39357;BME280;25077;50.302;18.996;2022-07-26T01:29:20;97389.41;;;20.37;40.45
39357;BME280;25077;50.302;18.996;2022-07-26T01:32:22;97381.59;;;20.36;40.39
39357;BME280;25077;50.302;18.996;2022-07-26T01:35:24;97385.09;;;20.36;40.46
39357;BME280;25077;50.302;18.996;2022-07-26T01:38:27;97394.56;;;20.35;41.15
39357;BME280;25077;50.302;18.996;2022-07-26T01:41:29;97392.16;;;20.37;40.97
39357;BME280;25077;50.302;18.996;2022-07-26T01:44:31;97383.47;;;20.39;40.45
39357;BME280;25077;50.302;18.996;2022-07-26T01:47:33;97382.34;;;20.36;41.30
39357;BME280;25077;50.302;18.996;2022-07-26T01:50:35;97375.00;;;20.33;41.13
39357;BME280;25077;50.302;18.996;2022-07-26T01:53:39;97382.59;;;20.29;41.40
39357;BME280;25077;50.302;18.996;2022-07-26T01:56:41;97379.84;;;20.29;41.00
39357;BME280;25077;50.302;18.996;2022-07-26T01:59:42;97368.19;;;20.25;40.87
39357;BME280;25077;50.302;18.996;2022-07-26T02:02:47;97369.88;;;20.22;41.31
39357;BME280;25077;50.302;18.996;2022-07-26T02:05:49;97372.41;;;20.17;41.86
39357;BME280;25077;50.302;18.996;2022-07-26T02:08:52;97360.75;;;20.13;42.26
39357;BME280;25077;50.302;18.996;2022-07-26T02:12:04;97359.69;;;20.10;42.64
39357;BME280;25077;50.302;18.996;2022-07-26T02:15:08;97360.13;;;20.09;41.44
39357;BME280;25077;50.302;18.996;2022-07-26T02:18:11;97355.41;;;20.09;41.75
39357;BME280;25077;50.302;18.996;2022-07-26T02:21:13;97357.69;;;20.11;41.94
39357;BME280;25077;50.302;18.996;2022-07-26T02:24:19;97354.50;;;20.12;42.52
39357;BME280;25077;50.302;18.996;2022-07-26T02:27:21;97350.13;;;20.15;41.78
39357;BME280;25077;50.302;18.996;2022-07-26T02:30:23;97353.75;;;20.12;42.03
39357;BME280;25077;50.302;18.996;2022-07-26T02:33:25;97348.25;;;20.12;42.08
39357;BME280;25077;50.302;18.996;2022-07-26T02:36:27;97340.56;;;20.07;42.10
39357;BME280;25077;50.302;18.996;2022-07-26T02:39:30;97331.53;;;20.06;42.51
39357;BME280;25077;50.302;18.996;2022-07-26T02:42:32;97331.09;;;20.08;42.95
39357;BME280;25077;50.302;18.996;2022-07-26T02:45:34;97336.59;;;20.08;42.86
39357;BME280;25077;50.302;18.996;2022-07-26T02:48:36;97339.69;;;20.10;42.71
39357;BME280;25077;50.302;18.996;2022-07-26T02:51:38;97333.28;;;20.13;42.84
39357;BME280;25077;50.302;18.996;2022-07-26T02:54:44;97336.38;;;20.15;42.85
39357;BME280;25077;50.302;18.996;2022-07-26T02:57:46;97330.09;;;20.14;43.14
39357;BME280;25077;50.302;18.996;2022-07-26T03:00:48;97324.72;;;20.11;42.94
39357;BME280;25077;50.302;18.996;2022-07-26T03:03:53;97328.34;;;20.08;43.24
39357;BME280;25077;50.302;18.996;2022-07-26T03:06:55;97321.31;;;20.07;43.68
39357;BME280;25077;50.302;18.996;2022-07-26T03:09:58;97324.06;;;20.07;43.06
39357;BME280;25077;50.302;18.996;2022-07-26T03:13:00;97323.63;;;20.08;43.46
39357;BME280;25077;50.302;18.996;2022-07-26T03:16:02;97316.94;;;20.09;43.58
39357;BME280;25077;50.302;18.996;2022-07-26T03:19:04;97326.25;;;20.12;42.98
39357;BME280;25077;50.302;18.996;2022-07-26T03:22:06;97316.78;;;20.13;43.08
39357;BME280;25077;50.302;18.996;2022-07-26T03:25:10;97325.25;;;20.18;42.88
39357;BME280;25077;50.302;18.996;2022-07-26T03:28:11;97326.66;;;20.23;43.17
39357;BME280;25077;50.302;18.996;2022-07-26T03:31:13;97327.31;;;20.27;43.09
39357;BME280;25077;50.302;18.996;2022-07-26T03:34:15;97322.47;;;20.31;43.55
39357;BME280;25077;50.302;18.996;2022-07-26T03:37:17;97323.22;;;20.32;43.60
39357;BME280;25077;50.302;18.996;2022-07-26T03:40:24;97311.78;;;20.33;43.45
39357;BME280;25077;50.302;18.996;2022-07-26T03:43:25;97317.16;;;20.37;43.21
39357;BME280;25077;50.302;18.996;2022-07-26T03:46:29;97319.13;;;20.36;43.93
39357;BME280;25077;50.302;18.996;2022-07-26T03:49:31;97320.69;;;20.37;43.87
39357;BME280;25077;50.302;18.996;2022-07-26T03:52:33;97319.78;;;20.40;43.93
39357;BME280;25077;50.302;18.996;2022-07-26T03:55:37;97314.94;;;20.44;43.76
39357;BME280;25077;50.302;18.996;2022-07-26T03:58:58;97312.84;;;20.48;43.62
39357;BME280;25077;50.302;18.996;2022-07-26T04:02:00;97310.72;;;20.52;43.83
39357;BME280;25077;50.302;18.996;2022-07-26T04:05:02;97305.88;;;20.57;44.34
39357;BME280;25077;50.302;18.996;2022-07-26T04:08:04;97319.03;;;20.62;44.21
39357;BME280;25077;50.302;18.996;2022-07-26T04:11:08;97312.63;;;20.65;44.24
39357;BME280;25077;50.302;18.996;2022-07-26T04:14:10;97305.34;;;20.71;44.36
39357;BME280;25077;50.302;18.996;2022-07-26T04:17:12;97304.44;;;20.74;44.21
39357;BME280;25077;50.302;18.996;2022-07-26T04:20:17;97298.66;;;20.81;44.31
39357;BME280;25077;50.302;18.996;2022-07-26T04:23:19;97296.44;;;20.89;44.50
39357;BME280;25077;50.302;18.996;2022-07-26T04:26:23;97296.63;;;20.94;43.96
39357;BME280;25077;50.302;18.996;2022-07-26T04:29:25;97297.88;;;21.02;44.16
39357;BME280;25077;50.302;18.996;2022-07-26T04:32:27;97290.56;;;21.09;43.85
39357;BME280;25077;50.302;18.996;2022-07-26T04:35:32;97301.28;;;21.16;44.02
39357;BME280;25077;50.302;18.996;2022-07-26T04:38:35;97296.31;;;21.23;43.72
39357;BME280;25077;50.302;18.996;2022-07-26T04:41:38;97304.75;;;21.29;43.18
39357;BME280;25077;50.302;18.996;2022-07-26T04:44:40;97313.03;;;21.38;43.36
39357;BME280;25077;50.302;18.996;2022-07-26T04:47:42;97316.13;;;21.40;43.22
39357;BME280;25077;50.302;18.996;2022-07-26T04:50:45;97321.34;;;21.47;43.18
39357;BME280;25077;50.302;18.996;2022-07-26T04:53:51;97337.56;;;21.54;43.44
39357;BME280;25077;50.302;18.996;2022-07-26T04:56:54;97353.06;;;21.61;43.62
39357;BME280;25077;50.302;18.996;2022-07-26T04:59:59;97377.53;;;21.59;44.03
39357;BME280;25077;50.302;18.996;2022-07-26T05:03:02;97396.78;;;21.50;44.54
39357;BME280;25077;50.302;18.996;2022-07-26T05:06:04;97377.13;;;21.39;44.80
39357;BME280;25077;50.302;18.996;2022-07-26T05:09:06;97418.88;;;21.28;46.37
39357;BME280;25077;50.302;18.996;2022-07-26T05:12:11;97397.44;;;21.23;45.34
39357;BME280;25077;50.302;18.996;2022-07-26T05:15:14;97396.19;;;21.24;45.03
39357;BME280;25077;50.302;18.996;2022-07-26T05:18:16;97399.25;;;21.26;46.00
39357;BME280;25077;50.302;18.996;2022-07-26T05:21:22;97387.66;;;21.31;45.74
39357;BME280;25077;50.302;18.996;2022-07-26T05:24:27;97391.25;;;21.41;45.44
39357;BME280;25077;50.302;18.996;2022-07-26T05:27:30;97397.41;;;21.54;45.55
39357;BME280;25077;50.302;18.996;2022-07-26T05:30:32;97409.25;;;21.64;44.29
39357;BME280;25077;50.302;18.996;2022-07-26T05:33:34;97414.00;;;21.72;44.11
39357;BME280;25077;50.302;18.996;2022-07-26T05:36:36;97416.50;;;21.79;44.28
39357;BME280;25077;50.302;18.996;2022-07-26T05:39:38;97407.19;;;21.86;45.63
39357;BME280;25077;50.302;18.996;2022-07-26T05:42:42;97407.81;;;21.90;43.76
39357;BME280;25077;50.302;18.996;2022-07-26T05:45:44;97404.47;;;21.95;44.24
39357;BME280;25077;50.302;18.996;2022-07-26T05:48:46;97413.69;;;22.01;44.34
39357;BME280;25077;50.302;18.996;2022-07-26T05:51:48;97403.75;;;22.04;43.94
39357;BME280;25077;50.302;18.996;2022-07-26T05:54:50;97418.31;;;22.14;43.93
39357;BME280;25077;50.302;18.996;2022-07-26T05:57:53;97432.72;;;22.08;44.87
39357;BME280;25077;50.302;18.996;2022-07-26T06:00:55;97445.72;;;22.08;45.08
39357;BME280;25077;50.302;18.996;2022-07-26T06:03:57;97444.66;;;22.15;44.42
39357;BME280;25077;50.302;18.996;2022-07-26T06:06:59;97438.84;;;22.22;45.06
39357;BME280;25077;50.302;18.996;2022-07-26T06:10:01;97448.22;;;22.24;44.22
39357;BME280;25077;50.302;18.996;2022-07-26T06:13:04;97464.91;;;22.21;44.78
39357;BME280;25077;50.302;18.996;2022-07-26T06:16:07;97450.91;;;22.06;46.50
39357;BME280;25077;50.302;18.996;2022-07-26T06:19:09;97476.13;;;21.95;48.23
39357;BME280;25077;50.302;18.996;2022-07-26T06:22:11;97465.91;;;21.96;48.08
39357;BME280;25077;50.302;18.996;2022-07-26T06:25:13;97466.91;;;21.89;48.47
39357;BME280;25077;50.302;18.996;2022-07-26T06:28:16;97464.13;;;21.80;52.67
39357;BME280;25077;50.302;18.996;2022-07-26T06:31:18;97477.56;;;21.78;51.28
39357;BME280;25077;50.302;18.996;2022-07-26T06:34:20;97504.63;;;21.70;52.59
39357;BME280;25077;50.302;18.996;2022-07-26T06:37:21;97518.50;;;21.57;53.03
39357;BME280;25077;50.302;18.996;2022-07-26T06:40:23;97536.69;;;21.55;56.00
39357;BME280;25077;50.302;18.996;2022-07-26T06:43:27;97505.19;;;21.56;55.79
39357;BME280;25077;50.302;18.996;2022-07-26T06:46:28;97514.78;;;21.51;53.64
39357;BME280;25077;50.302;18.996;2022-07-26T06:49:30;97530.16;;;21.62;54.47
39357;BME280;25077;50.302;18.996;2022-07-26T06:52:32;97542.84;;;21.59;53.34
39357;BME280;25077;50.302;18.996;2022-07-26T06:55:34;97543.22;;;21.48;53.70
39357;BME280;25077;50.302;18.996;2022-07-26T06:58:38;97529.06;;;21.37;54.72
39357;BME280;25077;50.302;18.996;2022-07-26T07:01:40;97573.06;;;21.15;56.14
39357;BME280;25077;50.302;18.996;2022-07-26T07:04:41;97558.06;;;20.94;57.02
39357;BME280;25077;50.302;18.996;2022-07-26T07:07:43;97576.25;;;20.79;56.78
39357;BME280;25077;50.302;18.996;2022-07-26T07:10:45;97575.50;;;20.53;58.94
39357;BME280;25077;50.302;18.996;2022-07-26T07:13:49;97589.16;;;20.31;59.08
39357;BME280;25077;50.302;18.996;2022-07-26T07:16:51;97595.28;;;20.22;57.58
39357;BME280;25077;50.302;18.996;2022-07-26T07:19:53;97628.34;;;20.06;60.66
39357;BME280;25077;50.302;18.996;2022-07-26T07:22:54;97660.53;;;19.93;62.39
39357;BME280;25077;50.302;18.996;2022-07-26T07:25:56;97624.16;;;19.89;59.70
39357;BME280;25077;50.302;18.996;2022-07-26T07:29:00;97631.72;;;19.85;61.36
39357;BME280;25077;50.302;18.996;2022-07-26T07:32:02;97644.44;;;19.79;61.62
39357;BME280;25077;50.302;18.996;2022-07-26T07:35:05;97625.34;;;19.59;60.88
39357;BME280;25077;50.302;18.996;2022-07-26T07:38:07;97634.72;;;19.45;62.47
39357;BME280;25077;50.302;18.996;2022-07-26T07:41:09;97633.38;;;19.37;61.91
39357;BME280;25077;50.302;18.996;2022-07-26T07:44:12;97641.53;;;19.40;63.21
39357;BME280;25077;50.302;18.996;2022-07-26T07:47:17;97633.72;;;19.39;61.83
39357;BME280;25077;50.302;18.996;2022-07-26T07:50:19;97639.03;;;19.46;61.41
39357;BME280;25077;50.302;18.996;2022-07-26T07:53:21;97635.94;;;19.44;64.08
39357;BME280;25077;50.302;18.996;2022-07-26T07:56:23;97646.47;;;19.45;61.54
39357;BME280;25077;50.302;18.996;2022-07-26T07:59:26;97662.69;;;19.40;63.68
39357;BME280;25077;50.302;18.996;2022-07-26T08:02:28;97676.81;;;19.26;65.42
39357;BME280;25077;50.302;18.996;2022-07-26T08:05:30;97670.38;;;19.16;65.45
39357;BME280;25077;50.302;18.996;2022-07-26T08:08:32;97680.13;;;19.17;63.11
39357;BME280;25077;50.302;18.996;2022-07-26T08:11:34;97682.88;;;19.17;66.29
39357;BME280;25077;50.302;18.996;2022-07-26T08:14:37;97692.50;;;19.09;66.06
39357;BME280;25077;50.302;18.996;2022-07-26T08:17:39;97695.06;;;19.16;64.99
39357;BME280;25077;50.302;18.996;2022-07-26T08:20:41;97683.91;;;19.23;64.07
39357;BME280;25077;50.302;18.996;2022-07-26T08:23:43;97680.31;;;19.26;63.92
39357;BME280;25077;50.302;18.996;2022-07-26T08:26:45;97686.50;;;19.30;64.26
39357;BME280;25077;50.302;18.996;2022-07-26T08:29:48;97684.78;;;19.36;67.18
39357;BME280;25077;50.302;18.996;2022-07-26T08:32:50;97688.97;;;19.41;64.60
39357;BME280;25077;50.302;18.996;2022-07-26T08:35:52;97685.59;;;19.50;63.69
39357;BME280;25077;50.302;18.996;2022-07-26T08:38:55;97689.31;;;19.59;63.51
39357;BME280;25077;50.302;18.996;2022-07-26T08:41:57;97690.13;;;19.72;63.60
39357;BME280;25077;50.302;18.996;2022-07-26T08:45:00;97694.09;;;19.71;65.95
39357;BME280;25077;50.302;18.996;2022-07-26T08:48:02;97690.91;;;19.73;64.24
39357;BME280;25077;50.302;18.996;2022-07-26T08:51:06;97693.13;;;19.78;63.32
39357;BME280;25077;50.302;18.996;2022-07-26T08:54:11;97700.31;;;19.88;62.89
39357;BME280;25077;50.302;18.996;2022-07-26T08:57:13;97687.91;;;19.96;62.75
39357;BME280;25077;50.302;18.996;2022-07-26T09:00:19;97685.50;;;19.98;63.14
39357;BME280;25077;50.302;18.996;2022-07-26T09:03:24;97695.63;;;20.02;62.29
39357;BME280;25077;50.302;18.996;2022-07-26T09:06:26;97702.78;;;20.12;61.77
39357;BME280;25077;50.302;18.996;2022-07-26T09:09:28;97709.28;;;20.18;61.98
39357;BME280;25077;50.302;18.996;2022-07-26T09:12:31;97709.75;;;20.16;62.83
39357;BME280;25077;50.302;18.996;2022-07-26T09:15:34;97709.97;;;20.22;62.21
39357;BME280;25077;50.302;18.996;2022-07-26T09:18:39;97715.69;;;20.15;62.81
39357;BME280;25077;50.302;18.996;2022-07-26T09:21:41;97709.84;;;20.13;62.69
39357;BME280;25077;50.302;18.996;2022-07-26T09:24:44;97718.97;;;20.10;63.36
39357;BME280;25077;50.302;18.996;2022-07-26T09:27:47;97740.47;;;19.98;64.26
39357;BME280;25077;50.302;18.996;2022-07-26T09:30:54;97753.53;;;19.94;64.40
39357;BME280;25077;50.302;18.996;2022-07-26T09:33:59;97745.81;;;19.89;65.01
39357;BME280;25077;50.302;18.996;2022-07-26T09:37:01;97749.72;;;20.05;64.70
39357;BME280;25077;50.302;18.996;2022-07-26T09:40:05;97760.38;;;20.32;64.01
39357;BME280;25077;50.302;18.996;2022-07-26T09:43:07;97753.19;;;20.50;64.31
39357;BME280;25077;50.302;18.996;2022-07-26T09:46:11;97755.09;;;20.66;64.34
39357;BME280;25077;50.302;18.996;2022-07-26T09:49:17;97773.03;;;20.71;63.50
39357;BME280;25077;50.302;18.996;2022-07-26T09:52:20;97776.13;;;20.73;63.50
39357;BME280;25077;50.302;18.996;2022-07-26T09:55:22;97787.72;;;20.51;63.29
39357;BME280;25077;50.302;18.996;2022-07-26T09:58:25;97785.97;;;20.29;63.68
39357;BME280;25077;50.302;18.996;2022-07-26T10:01:29;97800.03;;;20.02;64.14
39357;BME280;25077;50.302;18.996;2022-07-26T10:04:34;97800.63;;;19.80;65.36
39357;BME280;25077;50.302;18.996;2022-07-26T10:07:36;97800.41;;;19.55;67.84
39357;BME280;25077;50.302;18.996;2022-07-26T10:10:42;97811.75;;;19.40;66.17
39357;BME280;25077;50.302;18.996;2022-07-26T10:13:46;97812.00;;;19.30;66.27
39357;BME280;25077;50.302;18.996;2022-07-26T10:16:49;97808.47;;;19.29;69.80
39357;BME280;25077;50.302;18.996;2022-07-26T10:19:51;97823.06;;;19.26;66.84
39357;BME280;25077;50.302;18.996;2022-07-26T10:22:54;97826.81;;;19.16;68.70
39357;BME280;25077;50.302;18.996;2022-07-26T10:25:56;97830.47;;;19.09;68.27
39357;BME280;25077;50.302;18.996;2022-07-26T10:29:20;97821.81;;;19.11;69.26
39357;BME280;25077;50.302;18.996;2022-07-26T10:32:29;97822.41;;;19.02;67.38
39357;BME280;25077;50.302;18.996;2022-07-26T10:35:38;97831.47;;;18.99;67.16
39357;BME280;25077;50.302;18.996;2022-07-26T10:38:56;97830.88;;;18.91;70.25
39357;BME280;25077;50.302;18.996;2022-07-26T10:42:00;97830.25;;;18.84;68.74
39357;BME280;25077;50.302;18.996;2022-07-26T10:45:15;97832.75;;;18.75;69.96
39357;BME280;25077;50.302;18.996;2022-07-26T10:48:20;97844.81;;;18.61;70.31
39357;BME280;25077;50.302;18.996;2022-07-26T10:51:26;97844.22;;;18.50;68.81
39357;BME280;25077;50.302;18.996;2022-07-26T10:54:29;97853.13;;;18.34;68.92
39357;BME280;25077;50.302;18.996;2022-07-26T10:57:32;97850.09;;;18.28;69.73
39357;BME280;25077;50.302;18.996;2022-07-26T11:00:34;97855.59;;;18.28;69.28
39357;BME280;25077;50.302;18.996;2022-07-26T11:03:39;97858.81;;;18.23;73.14
39357;BME280;25077;50.302;18.996;2022-07-26T11:06:42;97851.06;;;18.18;70.96
39357;BME280;25077;50.302;18.996;2022-07-26T11:09:45;97853.09;;;18.14;70.21
39357;BME280;25077;50.302;18.996;2022-07-26T11:12:47;97868.47;;;18.08;72.80
39357;BME280;25077;50.302;18.996;2022-07-26T11:15:50;97864.66;;;18.02;71.13
39357;BME280;25077;50.302;18.996;2022-07-26T11:18:55;97857.00;;;17.93;71.35
39357;BME280;25077;50.302;18.996;2022-07-26T11:21:58;97865.69;;;17.84;70.74
39357;BME280;25077;50.302;18.996;2022-07-26T11:25:00;97868.25;;;17.72;73.06
39357;BME280;25077;50.302;18.996;2022-07-26T11:28:04;97864.50;;;17.62;73.80
39357;BME280;25077;50.302;18.996;2022-07-26T11:31:06;97859.88;;;17.59;73.23
39357;BME280;25077;50.302;18.996;2022-07-26T11:34:22;97872.72;;;17.62;72.62
39357;BME280;25077;50.302;18.996;2022-07-26T11:37:24;97862.47;;;17.66;73.02
39357;BME280;25077;50.302;18.996;2022-07-26T11:40:42;97861.28;;;17.67;73.89
39357;BME280;25077;50.302;18.996;2022-07-26T11:43:45;97847.16;;;17.69;72.51
39357;BME280;25077;50.302;18.996;2022-07-26T11:46:49;97854.88;;;17.77;72.09
39357;BME280;25077;50.302;18.996;2022-07-26T11:49:53;97862.53;;;17.86;71.76
39357;BME280;25077;50.302;18.996;2022-07-26T11:52:55;97853.09;;;17.91;70.93
39357;BME280;25077;50.302;18.996;2022-07-26T11:56:09;97854.19;;;17.97;71.79
39357;BME280;25077;50.302;18.996;2022-07-26T11:59:12;97845.81;;;18.04;70.43
39357;BME280;25077;50.302;18.996;2022-07-26T12:02:15;97848.00;;;18.16;71.11
39357;BME280;25077;50.302;18.996;2022-07-26T12:05:20;97848.56;;;18.27;70.55
39357;BME280;25077;50.302;18.996;2022-07-26T12:08:23;97851.81;;;18.42;70.82
39357;BME280;25077;50.302;18.996;2022-07-26T12:11:36;97866.75;;;18.61;71.47
39357;BME280;25077;50.302;18.996;2022-07-26T12:14:42;97864.63;;;18.68;70.15
39357;BME280;25077;50.302;18.996;2022-07-26T12:17:57;97868.47;;;18.71;70.35
39357;BME280;25077;50.302;18.996;2022-07-26T12:21:03;97866.59;;;18.68;69.95
39357;BME280;25077;50.302;18.996;2022-07-26T12:24:06;97872.06;;;18.68;70.04
39357;BME280;25077;50.302;18.996;2022-07-26T12:27:10;97879.09;;;18.69;69.86
39357;BME280;25077;50.302;18.996;2022-07-26T12:30:14;97879.38;;;18.75;70.14
39357;BME280;25077;50.302;18.996;2022-07-26T12:33:17;97878.97;;;18.76;69.31
39357;BME280;25077;50.302;18.996;2022-07-26T12:36:21;97882.19;;;18.71;69.25
39357;BME280;25077;50.302;18.996;2022-07-26T12:39:24;97877.56;;;18.68;68.84
39357;BME280;25077;50.302;18.996;2022-07-26T12:42:28;97876.84;;;18.64;68.06
39357;BME280;25077;50.302;18.996;2022-07-26T12:45:32;97880.06;;;18.59;67.95
39357;BME280;25077;50.302;18.996;2022-07-26T12:48:35;97877.41;;;18.55;68.01
39357;BME280;25077;50.302;18.996;2022-07-26T12:51:42;97880.22;;;18.52;68.61
39357;BME280;25077;50.302;18.996;2022-07-26T12:54:45;97886.03;;;18.54;68.30
39357;BME280;25077;50.302;18.996;2022-07-26T12:57:47;97886.41;;;18.56;67.63
39357;BME280;25077;50.302;18.996;2022-07-26T13:00:50;97886.41;;;18.56;67.15
39357;BME280;25077;50.302;18.996;2022-07-26T13:03:53;97881.72;;;18.56;66.99
39357;BME280;25077;50.302;18.996;2022-07-26T13:06:56;97885.13;;;18.60;67.17
39357;BME280;25077;50.302;18.996;2022-07-26T13:09:58;97880.44;;;18.61;67.81
39357;BME280;25077;50.302;18.996;2022-07-26T13:13:00;97886.34;;;18.59;66.76
39357;BME280;25077;50.302;18.996;2022-07-26T13:16:03;97877.34;;;18.59;67.39
39357;BME280;25077;50.302;18.996;2022-07-26T13:19:05;97882.69;;;18.66;66.91
39357;BME280;25077;50.302;18.996;2022-07-26T13:22:09;97881.34;;;18.74;66.64
39357;BME280;25077;50.302;18.996;2022-07-26T13:25:11;97885.13;;;18.84;66.92
39357;BME280;25077;50.302;18.996;2022-07-26T13:28:13;97895.84;;;18.94;66.53
39357;BME280;25077;50.302;18.996;2022-07-26T13:31:15;97891.84;;;18.99;66.29
39357;BME280;25077;50.302;18.996;2022-07-26T13:34:17;97898.31;;;18.89;66.32
39357;BME280;25077;50.302;18.996;2022-07-26T13:37:21;97893.75;;;18.82;66.14
39357;BME280;25077;50.302;18.996;2022-07-26T13:40:23;97896.59;;;18.79;65.70
39357;BME280;25077;50.302;18.996;2022-07-26T13:43:25;97902.06;;;18.79;65.44
39357;BME280;25077;50.302;18.996;2022-07-26T13:46:27;97899.31;;;18.79;65.00
39357;BME280;25077;50.302;18.996;2022-07-26T13:49:30;97902.47;;;18.77;64.81
39357;BME280;25077;50.302;18.996;2022-07-26T13:52:34;97896.59;;;18.79;65.40
39357;BME280;25077;50.302;18.996;2022-07-26T13:55:36;97890.53;;;18.87;64.48
39357;BME280;25077;50.302;18.996;2022-07-26T13:58:38;97887.91;;;19.00;65.16
39357;BME280;25077;50.302;18.996;2022-07-26T14:01:40;97888.53;;;19.08;65.68
39357;BME280;25077;50.302;18.996;2022-07-26T14:04:44;97889.66;;;19.10;65.52
39357;BME280;25077;50.302;18.996;2022-07-26T14:07:50;97885.97;;;19.17;65.84
39357;BME280;25077;50.302;18.996;2022-07-26T14:10:52;97895.25;;;19.23;64.97
39357;BME280;25077;50.302;18.996;2022-07-26T14:13:54;97885.75;;;19.28;64.82
39357;BME280;25077;50.302;18.996;2022-07-26T14:16:56;97895.81;;;19.34;64.87
39357;BME280;25077;50.302;18.996;2022-07-26T14:20:01;97892.44;;;19.27;65.27
39357;BME280;25077;50.302;18.996;2022-07-26T14:23:04;97894.00;;;19.28;64.87
39357;BME280;25077;50.302;18.996;2022-07-26T14:26:06;97889.78;;;19.23;65.32
39357;BME280;25077;50.302;18.996;2022-07-26T14:29:08;97893.72;;;19.22;65.76
39357;BME280;25077;50.302;18.996;2022-07-26T14:32:10;97894.50;;;19.22;65.38
39357;BME280;25077;50.302;18.996;2022-07-26T14:35:13;97896.47;;;19.22;65.41
39357;BME280;25077;50.302;18.996;2022-07-26T14:38:18;97894.09;;;19.24;64.61
39357;BME280;25077;50.302;18.996;2022-07-26T14:41:20;97902.66;;;19.26;65.41
39357;BME280;25077;50.302;18.996;2022-07-26T14:44:22;97901.63;;;19.20;65.28
39357;BME280;25077;50.302;18.996;2022-07-26T14:47:26;97905.28;;;19.13;65.61
39357;BME280;25077;50.302;18.996;2022-07-26T14:50:28;97910.00;;;19.13;65.86
39357;BME280;25077;50.302;18.996;2022-07-26T14:53:31;97908.19;;;19.06;66.89
39357;BME280;25077;50.302;18.996;2022-07-26T14:56:33;97912.88;;;19.06;66.08
39357;BME280;25077;50.302;18.996;2022-07-26T14:59:35;97910.13;;;19.06;66.69
39357;BME280;25077;50.302;18.996;2022-07-26T15:02:38;97905.78;;;19.08;65.96
39357;BME280;25077;50.302;18.996;2022-07-26T15:05:40;97899.38;;;19.15;65.87
39357;BME280;25077;50.302;18.996;2022-07-26T15:08:44;97891.34;;;19.24;66.27
39357;BME280;25077;50.302;18.996;2022-07-26T15:11:49;97892.72;;;19.32;65.64
39357;BME280;25077;50.302;18.996;2022-07-26T15:14:51;97896.88;;;19.40;65.92
39357;BME280;25077;50.302;18.996;2022-07-26T15:17:53;97893.19;;;19.47;65.55
39357;BME280;25077;50.302;18.996;2022-07-26T15:20:56;97898.59;;;19.51;65.00
39357;BME280;25077;50.302;18.996;2022-07-26T15:24:00;97899.22;;;19.58;65.41
39357;BME280;25077;50.302;18.996;2022-07-26T15:27:03;97902.59;;;19.66;65.62
39357;BME280;25077;50.302;18.996;2022-07-26T15:30:07;97899.00;;;19.69;64.62
39357;BME280;25077;50.302;18.996;2022-07-26T15:33:14;97897.34;;;19.71;64.49
39357;BME280;25077;50.302;18.996;2022-07-26T15:36:17;97892.72;;;19.85;64.91
39357;BME280;25077;50.302;18.996;2022-07-26T15:39:21;97886.97;;;20.12;65.08
39357;BME280;25077;50.302;18.996;2022-07-26T15:42:23;97891.75;;;20.40;64.89
39357;BME280;25077;50.302;18.996;2022-07-26T15:45:27;97895.47;;;20.63;64.55
39357;BME280;25077;50.302;18.996;2022-07-26T15:48:33;97879.25;;;20.81;64.42
39357;BME280;25077;50.302;18.996;2022-07-26T15:51:36;97885.75;;;20.87;63.69
39357;BME280;25077;50.302;18.996;2022-07-26T15:54:40;97876.63;;;20.90;63.40
39357;BME280;25077;50.302;18.996;2022-07-26T15:57:42;97878.19;;;20.91;63.47